Time;durP1;ratioP1;P1;durP2;ratioP2;P2;SDS_P1;SDS_P2;PMS_P1;PMS_P2;Temp;Humidity;BMP_temperature;BMP_pressure;BME280_temperature;BME280_humidity;BME280_pressure;Samples;Min_cycle;Max_cycle;Signal;HPM_P1;HPM_P2
2023/05/14 00:00:18;;;;;;;4.07;3.67;;;17.90;82.80;;;;;;4977073;28;20457;-44
2023/05/14 00:02:46;;;;;;;4.03;3.63;;;17.90;82.70;;;;;;4967487;28;21075;-45
2023/05/14 00:05:15;;;;;;;4.30;3.90;;;17.90;82.80;;;;;;4969216;28;20451;-45
2023/05/14 00:07:44;;;;;;;4.07;3.67;;;17.90;83.10;;;;;;4970239;28;20513;-45
2023/05/14 00:10:12;;;;;;;4.10;3.70;;;17.90;82.80;;;;;;4972666;28;20529;-45
2023/05/14 00:12:42;;;;;;;3.70;3.40;;;17.90;83.00;;;;;;4970387;28;21055;-45
2023/05/14 00:15:11;;;;;;;4.20;3.63;;;17.90;83.30;;;;;;4972128;28;20447;-45
2023/05/14 00:17:41;;;;;;;4.70;4.10;;;17.90;83.10;;;;;;4972333;28;20478;-45
2023/05/14 00:20:11;;;;;;;4.50;4.10;;;17.90;83.10;;;;;;4972011;28;20655;-45
2023/05/14 00:22:40;;;;;;;5.80;4.20;;;17.90;82.70;;;;;;4967593;28;21383;-45
2023/05/14 00:25:09;;;;;;;4.00;3.70;;;17.90;82.80;;;;;;4986157;28;20446;-45
2023/05/14 00:27:38;;;;;;;3.47;3.17;;;17.90;82.50;;;;;;4979034;28;20487;-46
2023/05/14 00:30:09;;;;;;;4.13;3.73;;;17.90;82.50;;;;;;4967297;28;20822;-45
2023/05/14 00:32:38;;;;;;;3.53;3.23;;;17.90;82.30;;;;;;4971102;28;20507;-45
2023/05/14 00:35:07;;;;;;;4.07;3.67;;;17.90;82.60;;;;;;4972983;28;20431;-45
2023/05/14 00:37:36;;;;;;;4.57;4.17;;;17.90;82.40;;;;;;4969121;28;20792;-45
2023/05/14 00:40:07;;;;;;;4.00;3.30;;;17.80;82.50;;;;;;4971874;28;20447;-45
2023/05/14 00:42:35;;;;;;;4.97;4.13;;;17.90;82.80;;;;;;4971254;28;20581;-45
2023/05/14 00:45:05;;;;;;;4.80;3.97;;;17.90;82.60;;;;;;4964622;28;20447;-45
2023/05/14 00:47:36;;;;;;;4.47;4.07;;;17.80;82.40;;;;;;4970819;28;20567;-45
2023/05/14 00:50:05;;;;;;;4.60;3.43;;;17.80;82.40;;;;;;4971751;28;21018;-45
2023/05/14 00:52:34;;;;;;;3.80;3.50;;;17.80;82.20;;;;;;4968722;28;20922;-44
2023/05/14 00:55:06;;;;;;;4.67;4.27;;;17.90;82.30;;;;;;4972398;28;20473;-46
2023/05/14 00:57:36;;;;;;;3.63;3.33;;;17.90;82.30;;;;;;4970877;28;20485;-46
2023/05/14 01:00:05;;;;;;;4.07;3.63;;;17.80;82.50;;;;;;4953927;28;20457;-45
2023/05/14 01:02:35;;;;;;;4.47;4.07;;;17.80;82.60;;;;;;4994961;28;20463;-45
2023/05/14 01:05:08;;;;;;;4.50;4.10;;;17.90;82.60;;;;;;4972401;28;20435;-45
2023/05/14 01:07:47;;;;;;;4.13;3.73;;;17.80;82.40;;;;;;4966645;28;20479;-45
2023/05/14 01:10:21;;;;;;;5.00;3.87;;;17.80;82.50;;;;;;4969752;28;20501;-45
2023/05/14 01:12:59;;;;;;;4.70;4.20;;;17.80;82.30;;;;;;4970597;28;20507;-45
2023/05/14 01:15:31;;;;;;;5.50;4.60;;;17.80;82.30;;;;;;4971056;28;20482;-45
2023/05/14 01:18:05;;;;;;;5.10;3.53;;;17.80;82.30;;;;;;4969535;28;20501;-45
2023/05/14 01:20:33;;;;;;;4.97;4.50;;;17.80;82.20;;;;;;4964974;28;20486;-45
2023/05/14 01:23:03;;;;;;;4.17;3.77;;;17.80;82.10;;;;;;4963124;28;20491;-45
2023/05/14 01:25:32;;;;;;;4.40;4.00;;;17.80;82.20;;;;;;4972263;28;20447;-45
2023/05/14 01:28:12;;;;;;;5.70;4.73;;;17.80;82.10;;;;;;4969965;28;20475;-45
2023/05/14 01:30:45;;;;;;;4.87;3.60;;;17.80;82.10;;;;;;4975270;28;20482;-45
2023/05/14 01:33:17;;;;;;;4.33;3.93;;;17.80;82.00;;;;;;4968972;28;20574;-44
2023/05/14 01:35:46;;;;;;;4.60;4.10;;;17.80;82.10;;;;;;4972016;28;20965;-45
2023/05/14 01:38:19;;;;;;;4.70;4.30;;;17.80;82.30;;;;;;4988497;28;20557;-45
2023/05/14 01:40:48;;;;;;;4.00;3.70;;;17.80;82.10;;;;;;4990359;28;20457;-45
2023/05/14 01:43:18;;;;;;;4.50;4.10;;;17.80;82.60;;;;;;4987851;28;20469;-44
2023/05/14 01:45:47;;;;;;;4.70;4.30;;;17.80;82.10;;;;;;5001034;28;21087;-44
2023/05/14 01:48:15;;;;;;;5.03;4.20;;;17.80;82.10;;;;;;4954807;28;20968;-45
2023/05/14 01:50:44;;;;;;;5.70;4.70;;;17.80;82.30;;;;;;4970869;28;20818;-46
2023/05/14 01:53:12;;;;;;;4.50;3.97;;;17.80;82.20;;;;;;4981573;28;20978;-45
2023/05/14 01:55:42;;;;;;;4.50;4.10;;;17.80;82.20;;;;;;4970453;28;20458;-49
2023/05/14 01:58:11;;;;;;;5.30;4.33;;;17.80;82.30;;;;;;4988611;28;20909;-45
2023/05/14 02:00:40;;;;;;;3.90;3.60;;;17.80;82.30;;;;;;5000189;28;20456;-44
2023/05/14 02:03:08;;;;;;;5.13;4.63;;;17.80;82.40;;;;;;4969502;28;20483;-45
2023/05/14 02:05:37;;;;;;;4.30;3.90;;;17.70;82.30;;;;;;4971394;28;20440;-44
2023/05/14 02:08:06;;;;;;;4.93;4.53;;;17.80;82.30;;;;;;4983924;28;21004;-44
2023/05/14 02:10:34;;;;;;;3.67;3.37;;;17.70;82.30;;;;;;4970965;28;20447;-45
2023/05/14 02:13:04;;;;;;;4.67;4.17;;;17.70;82.60;;;;;;4988341;28;20909;-46
2023/05/14 02:15:33;;;;;;;4.70;4.30;;;17.70;82.10;;;;;;4990702;28;20529;-45
2023/05/14 02:18:02;;;;;;;4.20;3.80;;;17.70;82.10;;;;;;4970522;28;20522;-46
2023/05/14 02:20:31;;;;;;;4.43;4.03;;;17.70;82.20;;;;;;4963461;28;20455;-46
2023/05/14 02:22:59;;;;;;;4.83;4.43;;;17.70;82.10;;;;;;4982731;28;20480;-45
2023/05/14 02:25:28;;;;;;;5.20;3.87;;;17.70;82.20;;;;;;4998384;28;20449;-45
2023/05/14 02:27:59;;;;;;;4.03;3.63;;;17.70;83.60;;;;;;4971457;28;21059;-45
2023/05/14 02:30:30;;;;;;;4.57;4.10;;;17.70;82.20;;;;;;4961996;28;20451;-46
2023/05/14 02:32:58;;;;;;;3.97;3.63;;;17.70;82.10;;;;;;4984007;28;20483;-46
2023/05/14 02:35:27;;;;;;;4.63;4.23;;;17.70;82.40;;;;;;4970651;28;20808;-45
2023/05/14 02:37:55;;;;;;;4.10;3.70;;;17.70;82.30;;;;;;4968954;28;20851;-45
2023/05/14 02:40:24;;;;;;;4.60;4.13;;;17.70;82.00;;;;;;4970100;28;21575;-45
2023/05/14 02:42:53;;;;;;;5.20;3.90;;;17.70;82.00;;;;;;5003582;28;20566;-45
2023/05/14 02:45:21;;;;;;;5.97;4.67;;;17.70;82.10;;;;;;4982864;28;20457;-46
2023/05/14 02:47:51;;;;;;;4.50;4.10;;;17.60;81.60;;;;;;4972150;28;20487;-45
2023/05/14 02:50:20;;;;;;;4.93;4.40;;;17.70;81.60;;;;;;4969610;28;20810;-45
2023/05/14 02:52:49;;;;;;;4.80;4.40;;;17.70;81.80;;;;;;4982055;28;20570;-46
2023/05/14 02:55:17;;;;;;;4.70;4.30;;;17.70;81.70;;;;;;4985977;28;20451;-45
2023/05/14 02:57:49;;;;;;;3.73;3.43;;;17.70;83.00;;;;;;4970631;28;20483;-45
2023/05/14 03:00:18;;;;;;;4.67;4.27;;;17.70;82.30;;;;;;4963831;28;20450;-45
2023/05/14 03:02:47;;;;;;;3.67;3.37;;;17.60;82.60;;;;;;4969102;28;20570;-45
2023/05/14 03:05:17;;;;;;;4.13;3.73;;;17.70;83.00;;;;;;4968721;28;20830;-46
2023/05/14 03:07:46;;;;;;;4.63;4.23;;;17.60;82.90;;;;;;4983381;28;21285;-46
2023/05/14 03:10:15;;;;;;;4.20;3.80;;;17.60;82.70;;;;;;4969205;28;20982;-46
2023/05/14 03:12:43;;;;;;;3.30;3.00;;;17.70;83.10;;;;;;5009051;28;20468;-45
2023/05/14 03:15:12;;;;;;;4.17;3.77;;;17.60;83.10;;;;;;4980431;28;20450;-45
2023/05/14 03:17:41;;;;;;;4.90;4.40;;;17.60;83.00;;;;;;4992612;28;20581;-45
2023/05/14 03:20:11;;;;;;;5.87;4.67;;;17.60;82.60;;;;;;4988549;28;20780;-45
2023/05/14 03:22:40;;;;;;;4.10;3.70;;;17.60;82.20;;;;;;4973379;28;20542;-46
2023/05/14 03:25:09;;;;;;;4.90;4.43;;;17.60;81.80;;;;;;4966610;28;20447;-45
2023/05/14 03:27:38;;;;;;;4.10;3.70;;;17.60;81.70;;;;;;4969051;28;20474;-45
2023/05/14 03:30:08;;;;;;;4.20;3.80;;;17.60;82.10;;;;;;4969005;28;21015;-45
2023/05/14 03:32:37;;;;;;;4.43;4.03;;;17.60;81.80;;;;;;4983916;28;20844;-45
2023/05/14 03:35:06;;;;;;;4.87;4.47;;;17.60;81.70;;;;;;4986947;28;20456;-45
2023/05/14 03:37:35;;;;;;;4.13;3.63;;;17.60;81.90;;;;;;4973865;28;20996;-45
2023/05/14 03:40:07;;;;;;;4.67;4.27;;;17.50;81.50;;;;;;4985178;28;20842;-45
2023/05/14 03:42:36;;;;;;;4.70;4.20;;;17.60;81.60;;;;;;4965651;28;20514;-45
2023/05/14 03:45:06;;;;;;;4.90;4.50;;;17.60;81.70;;;;;;4963434;28;20470;-45
2023/05/14 03:47:35;;;;;;;5.40;4.90;;;17.50;81.50;;;;;;4970207;28;20482;-44
2023/05/14 03:50:04;;;;;;;4.63;4.23;;;17.50;81.60;;;;;;4970171;28;20872;-44
2023/05/14 03:52:32;;;;;;;4.97;4.53;;;17.60;81.60;;;;;;4960848;28;20555;-43
2023/05/14 03:55:03;;;;;;;4.63;4.23;;;17.60;81.60;;;;;;4971490;28;20506;-44
2023/05/14 03:57:33;;;;;;;4.70;4.27;;;17.50;81.50;;;;;;4969259;28;20459;-44
2023/05/14 04:00:02;;;;;;;3.70;3.40;;;17.50;81.60;;;;;;4961931;28;20507;-44
2023/05/14 04:02:44;;;;;;;6.50;4.53;;;17.60;81.90;;;;;;4964424;28;20466;-45
2023/05/14 04:05:13;;;;;;;4.53;4.13;;;17.50;81.60;;;;;;4968304;28;20446;-44
2023/05/14 04:07:42;;;;;;;4.83;4.40;;;17.50;81.70;;;;;;4969440;28;20475;-45
2023/05/14 04:10:10;;;;;;;4.73;4.17;;;17.50;81.60;;;;;;4967594;28;20501;-45
2023/05/14 04:12:40;;;;;;;5.03;4.53;;;17.50;81.50;;;;;;4969442;28;20505;-45
2023/05/14 04:15:10;;;;;;;4.60;4.20;;;17.50;81.50;;;;;;4961624;28;20447;-45
2023/05/14 04:17:38;;;;;;;7.27;4.43;;;17.50;81.60;;;;;;4968455;28;20920;-45
2023/05/14 04:20:08;;;;;;;6.10;4.50;;;17.50;81.60;;;;;;4969756;28;20509;-45
2023/05/14 04:22:37;;;;;;;4.50;3.90;;;17.50;81.70;;;;;;4967082;28;21015;-45
2023/05/14 04:25:06;;;;;;;4.30;3.90;;;17.50;81.60;;;;;;4967767;28;21012;-45
2023/05/14 04:27:34;;;;;;;5.20;4.33;;;17.50;81.70;;;;;;4968343;28;20478;-45
2023/05/14 04:30:07;;;;;;;5.40;4.87;;;17.50;81.90;;;;;;4984225;28;20716;-46
2023/05/14 04:32:35;;;;;;;4.67;4.27;;;17.50;81.90;;;;;;4968207;28;20549;-45
2023/05/14 04:35:04;;;;;;;5.40;4.30;;;17.50;81.80;;;;;;4968715;28;20458;-45
2023/05/14 04:37:33;;;;;;;4.63;3.93;;;17.50;81.60;;;;;;4965773;28;20612;-46
2023/05/14 04:40:02;;;;;;;4.30;3.90;;;17.50;81.90;;;;;;4981705;28;20915;-45
2023/05/14 04:42:30;;;;;;;3.83;3.53;;;17.50;81.70;;;;;;4968945;28;20459;-45
2023/05/14 04:44:59;;;;;;;4.20;3.80;;;17.40;82.10;;;;;;4968083;28;20508;-45
2023/05/14 04:47:29;;;;;;;3.87;3.57;;;17.40;82.10;;;;;;4998931;28;20482;-45
2023/05/14 04:49:58;;;;;;;5.03;4.53;;;17.40;82.40;;;;;;4969015;28;20753;-45
2023/05/14 04:52:26;;;;;;;4.30;4.00;;;17.40;82.00;;;;;;4967667;28;20483;-45
2023/05/14 04:54:55;;;;;;;4.03;3.67;;;17.40;81.80;;;;;;4972357;28;20853;-45
2023/05/14 04:57:24;;;;;;;4.67;4.27;;;17.40;82.20;;;;;;4971517;28;20470;-45
2023/05/14 04:59:52;;;;;;;7.43;4.37;;;17.40;82.00;;;;;;4969761;28;20563;-45
2023/05/14 05:02:21;;;;;;;4.93;4.40;;;17.40;81.90;;;;;;4971638;28;20593;-45
2023/05/14 05:04:51;;;;;;;3.90;3.50;;;17.40;82.30;;;;;;4972677;28;20998;-45
2023/05/14 05:07:19;;;;;;;3.70;3.40;;;17.40;82.70;;;;;;4966427;28;20891;-45
2023/05/14 05:09:47;;;;;;;4.00;3.60;;;17.40;82.60;;;;;;4971522;28;20463;-45
2023/05/14 05:12:16;;;;;;;4.73;4.33;;;17.40;82.70;;;;;;4971621;28;21127;-45
2023/05/14 05:14:44;;;;;;;4.13;3.73;;;17.40;82.30;;;;;;4970773;28;20533;-45
2023/05/14 05:17:13;;;;;;;4.33;3.80;;;17.40;82.20;;;;;;4971379;28;20471;-45
2023/05/14 05:19:41;;;;;;;4.03;3.63;;;17.40;82.30;;;;;;4966765;28;20881;-45
2023/05/14 05:22:13;;;;;;;7.00;4.50;;;17.40;82.50;;;;;;4971332;28;20495;-45
2023/05/14 05:24:41;;;;;;;4.33;3.80;;;17.40;82.20;;;;;;4971322;28;20455;-45
2023/05/14 05:27:10;;;;;;;4.80;3.90;;;17.40;82.30;;;;;;4971375;28;20471;-45
2023/05/14 05:29:38;;;;;;;4.27;3.87;;;17.40;82.30;;;;;;4968904;28;20466;-44
2023/05/14 05:32:07;;;;;;;4.40;4.00;;;17.40;82.40;;;;;;4976594;28;20439;-45
2023/05/14 05:34:36;;;;;;;4.83;4.13;;;17.50;82.50;;;;;;4970281;28;20455;-45
2023/05/14 05:37:05;;;;;;;4.30;3.90;;;17.40;82.30;;;;;;4968235;28;20495;-45
2023/05/14 05:39:34;;;;;;;4.60;4.20;;;17.50;82.50;;;;;;4970786;28;20993;-45
2023/05/14 05:42:04;;;;;;;4.90;4.40;;;17.50;82.20;;;;;;4970057;28;20467;-45
2023/05/14 05:44:32;;;;;;;4.20;3.83;;;17.40;82.20;;;;;;4969326;28;20432;-45
2023/05/14 05:47:00;;;;;;;4.00;3.60;;;17.50;82.40;;;;;;4971489;28;20542;-46
2023/05/14 05:49:29;;;;;;;4.17;3.70;;;17.40;82.40;;;;;;4969987;28;20451;-45
2023/05/14 05:51:58;;;;;;;5.07;4.27;;;17.50;82.70;;;;;;4970905;28;20533;-46
2023/05/14 05:54:26;;;;;;;4.60;4.10;;;17.40;83.70;;;;;;4965391;28;20451;-46
2023/05/14 05:56:56;;;;;;;4.70;4.30;;;17.40;82.20;;;;;;4970866;28;20459;-45
2023/05/14 05:59:25;;;;;;;4.33;3.93;;;17.40;82.30;;;;;;4969275;28;20554;-45
2023/05/14 06:01:53;;;;;;;4.00;3.70;;;17.40;82.40;;;;;;4968285;28;20474;-45
2023/05/14 06:04:22;;;;;;;4.60;4.20;;;17.40;82.50;;;;;;4972996;28;20447;-45
2023/05/14 06:06:50;;;;;;;5.00;4.60;;;17.40;82.40;;;;;;4985795;28;21030;-45
2023/05/14 06:09:18;;;;;;;4.70;4.23;;;17.40;82.40;;;;;;4969704;28;21019;-45
2023/05/14 06:11:47;;;;;;;3.80;3.50;;;17.40;82.50;;;;;;4970025;28;20533;-45
2023/05/14 06:14:17;;;;;;;3.63;3.33;;;17.40;82.60;;;;;;4965795;28;20541;-43
2023/05/14 06:16:45;;;;;;;4.37;3.87;;;17.40;82.70;;;;;;4963176;28;20475;-42
2023/05/14 06:19:17;;;;;;;4.43;3.53;;;17.40;84.10;;;;;;4969457;28;20924;-45
2023/05/14 06:21:46;;;;;;;3.83;3.53;;;17.40;82.90;;;;;;4966469;28;20530;-46
2023/05/14 06:24:15;;;;;;;4.40;4.00;;;17.40;82.90;;;;;;4972426;28;20448;-45
2023/05/14 06:26:43;;;;;;;3.73;3.40;;;17.40;83.00;;;;;;4971211;28;20467;-45
2023/05/14 06:29:12;;;;;;;3.87;3.60;;;17.40;82.90;;;;;;4970496;28;20451;-45
2023/05/14 06:31:42;;;;;;;3.47;3.20;;;17.40;83.00;;;;;;4970713;28;20471;-46
2023/05/14 06:34:10;;;;;;;4.30;3.90;;;17.40;83.00;;;;;;4972499;28;20447;-45
2023/05/14 06:36:39;;;;;;;4.13;3.67;;;17.40;83.00;;;;;;4971994;28;20514;-45
2023/05/14 06:39:07;;;;;;;4.23;3.83;;;17.40;83.00;;;;;;4972353;28;20439;-44
2023/05/14 06:41:36;;;;;;;3.80;3.47;;;17.40;82.90;;;;;;4970766;28;20896;-45
2023/05/14 06:44:05;;;;;;;4.27;3.87;;;17.40;82.90;;;;;;4967176;28;20464;-46
2023/05/14 06:46:33;;;;;;;3.33;3.03;;;17.40;83.00;;;;;;4972189;28;20542;-46
2023/05/14 06:49:04;;;;;;;3.57;3.27;;;17.40;83.00;;;;;;4969882;28;20454;-45
2023/05/14 06:51:32;;;;;;;4.07;3.73;;;17.40;82.90;;;;;;4968737;28;20875;-45
2023/05/14 06:54:01;;;;;;;7.60;5.50;;;17.40;82.90;;;;;;4969981;28;20449;-44
2023/05/14 06:56:29;;;;;;;5.33;4.83;;;17.50;82.90;;;;;;4965829;28;21053;-45
2023/05/14 06:58:58;;;;;;;5.20;4.67;;;17.50;82.90;;;;;;4963053;28;20448;-45
2023/05/14 07:01:29;;;;;;;5.10;4.50;;;17.50;82.80;;;;;;4963722;28;20510;-45
2023/05/14 07:03:57;;;;;;;5.00;4.50;;;17.50;82.80;;;;;;4973529;28;20805;-46
2023/05/14 07:06:27;;;;;;;5.37;4.87;;;17.50;82.80;;;;;;4969325;28;20582;-45
2023/05/14 07:08:56;;;;;;;5.23;4.73;;;17.50;82.70;;;;;;4970690;28;20446;-45
2023/05/14 07:11:24;;;;;;;5.67;4.60;;;17.50;82.70;;;;;;4970133;28;20470;-45
2023/05/14 07:13:53;;;;;;;4.33;3.97;;;17.50;82.70;;;;;;4964923;28;20848;-45
2023/05/14 07:16:22;;;;;;;4.57;4.17;;;17.50;82.60;;;;;;4984739;28;20493;-45
2023/05/14 07:18:51;;;;;;;4.93;4.53;;;17.50;82.60;;;;;;4970807;28;20427;-45
2023/05/14 07:21:19;;;;;;;5.50;5.03;;;17.60;82.70;;;;;;4971993;28;20459;-45
2023/05/14 07:23:50;;;;;;;4.40;4.00;;;17.60;82.60;;;;;;4969249;28;20854;-45
2023/05/14 07:26:18;;;;;;;4.73;4.33;;;17.60;82.60;;;;;;4970964;28;20459;-45
2023/05/14 07:28:47;;;;;;;4.10;3.80;;;17.60;82.60;;;;;;4970483;28;20813;-45
2023/05/14 07:31:15;;;;;;;3.90;3.60;;;17.60;82.60;;;;;;4969216;28;20983;-45
2023/05/14 07:33:44;;;;;;;5.10;3.60;;;17.60;82.60;;;;;;4966954;28;20451;-44
2023/05/14 07:36:13;;;;;;;6.43;4.80;;;17.60;82.60;;;;;;4969576;28;20479;-46
2023/05/14 07:38:42;;;;;;;4.77;4.37;;;17.60;82.60;;;;;;4966824;28;21035;-45
2023/05/14 07:41:11;;;;;;;6.00;4.60;;;17.60;82.60;;;;;;4970006;28;20475;-45
2023/05/14 07:43:40;;;;;;;5.20;4.80;;;17.60;82.60;;;;;;4965049;28;20446;-45
2023/05/14 07:46:09;;;;;;;5.67;5.17;;;17.60;82.50;;;;;;4971723;28;20454;-45
2023/05/14 07:48:37;;;;;;;4.67;4.20;;;17.60;82.50;;;;;;4986558;28;20785;-45
2023/05/14 07:51:06;;;;;;;5.10;4.70;;;17.60;82.50;;;;;;4968906;28;20486;-45
2023/05/14 07:53:34;;;;;;;5.43;4.80;;;17.60;82.40;;;;;;4983034;28;20443;-45
2023/05/14 07:56:03;;;;;;;4.60;4.20;;;17.60;82.40;;;;;;4971413;28;20454;-45
2023/05/14 07:58:34;;;;;;;5.20;4.47;;;17.60;82.40;;;;;;4967049;28;20440;-46
2023/05/14 08:01:05;;;;;;;4.47;4.07;;;17.60;82.50;;;;;;4968006;28;20518;-45
2023/05/14 08:03:38;;;;;;;4.83;4.40;;;17.60;82.50;;;;;;4969630;28;20530;-47
2023/05/14 08:06:07;;;;;;;4.00;3.70;;;17.60;82.40;;;;;;4967695;28;20447;-45
2023/05/14 08:08:36;;;;;;;5.70;5.10;;;17.60;82.40;;;;;;4975524;28;20945;-44
2023/05/14 08:11:05;;;;;;;4.80;4.40;;;17.60;82.40;;;;;;4966642;28;21098;-44
2023/05/14 08:13:36;;;;;;;4.83;4.43;;;17.60;82.50;;;;;;4966765;28;20584;-45
2023/05/14 08:16:06;;;;;;;4.90;4.40;;;17.60;82.40;;;;;;4968046;28;20538;-44
2023/05/14 08:18:35;;;;;;;5.30;4.50;;;17.60;82.50;;;;;;4970067;28;20496;-44
2023/05/14 08:21:04;;;;;;;4.80;4.10;;;17.60;82.60;;;;;;4970090;28;20821;-44
2023/05/14 08:23:32;;;;;;;3.93;3.63;;;17.60;82.50;;;;;;4964510;28;20493;-45
2023/05/14 08:26:02;;;;;;;5.03;4.53;;;17.70;82.60;;;;;;4969867;28;20463;-45
2023/05/14 08:28:30;;;;;;;5.10;4.70;;;17.60;82.50;;;;;;4971129;28;20513;-44
2023/05/14 08:31:00;;;;;;;4.70;4.30;;;17.70;82.60;;;;;;4973099;28;20510;-44
2023/05/14 08:33:29;;;;;;;4.80;4.40;;;17.60;82.60;;;;;;4967399;28;20455;-44
2023/05/14 08:35:59;;;;;;;4.70;4.30;;;17.60;82.60;;;;;;4965086;28;20482;-44
2023/05/14 08:38:28;;;;;;;4.43;4.03;;;17.60;82.60;;;;;;4969884;28;20532;-45
2023/05/14 08:40:57;;;;;;;5.77;5.27;;;17.60;82.60;;;;;;4973358;28;20505;-44
2023/05/14 08:43:29;;;;;;;5.07;4.67;;;17.60;82.70;;;;;;4965667;28;20500;-44
2023/05/14 08:46:01;;;;;;;5.10;4.60;;;17.60;82.60;;;;;;4969085;28;20466;-45
2023/05/14 08:48:33;;;;;;;5.30;4.73;;;17.60;82.70;;;;;;4981927;28;20454;-44
2023/05/14 08:51:02;;;;;;;5.47;4.97;;;17.60;82.70;;;;;;4971027;28;20785;-43
2023/05/14 08:53:31;;;;;;;4.70;4.30;;;17.60;82.70;;;;;;4968882;28;20808;-45
2023/05/14 08:56:01;;;;;;;4.63;4.23;;;17.70;82.80;;;;;;4973312;28;20862;-45
2023/05/14 08:58:30;;;;;;;4.93;4.17;;;17.60;82.70;;;;;;4980598;28;20541;-45
2023/05/14 09:01:02;;;;;;;5.10;4.70;;;17.60;82.70;;;;;;4969575;28;20463;-45
2023/05/14 09:03:32;;;;;;;5.47;4.97;;;17.60;82.70;;;;;;4973180;28;20467;-44
2023/05/14 09:06:01;;;;;;;6.03;4.40;;;17.60;82.80;;;;;;4972044;28;20447;-47
2023/05/14 09:08:35;;;;;;;4.33;3.93;;;17.60;82.80;;;;;;4969624;28;20447;-48
2023/05/14 09:11:04;;;;;;;4.70;4.30;;;17.60;82.70;;;;;;4977956;28;20479;-45
2023/05/14 09:13:36;;;;;;;5.43;4.90;;;17.60;82.80;;;;;;4968943;28;20439;-46
2023/05/14 09:16:07;;;;;;;5.23;4.70;;;17.60;82.70;;;;;;4972072;28;21191;-48
2023/05/14 09:18:43;;;;;;;5.37;4.97;;;17.60;82.80;;;;;;4973526;28;20419;-44
2023/05/14 09:21:13;;;;;;;5.30;4.90;;;17.60;82.80;;;;;;4973249;28;20473;-46
2023/05/14 09:23:43;;;;;;;4.93;4.53;;;17.60;82.90;;;;;;4967708;28;20483;-45
2023/05/14 09:26:11;;;;;;;5.17;4.67;;;17.60;83.00;;;;;;4971923;28;20519;-46
2023/05/14 09:28:41;;;;;;;5.37;4.87;;;17.60;83.00;;;;;;4971498;28;20451;-49
2023/05/14 09:31:12;;;;;;;4.93;4.53;;;17.60;82.90;;;;;;4971440;28;20439;-49
2023/05/14 09:33:40;;;;;;;5.40;4.90;;;17.60;83.00;;;;;;4972237;28;20489;-45
2023/05/14 09:36:09;;;;;;;5.50;5.00;;;17.60;83.00;;;;;;4971554;28;20450;-46
2023/05/14 09:38:37;;;;;;;7.07;5.13;;;17.60;83.10;;;;;;4966469;28;20483;-46
2023/05/14 09:41:06;;;;;;;9.83;8.67;;;17.60;83.30;;;;;;4970129;28;20470;-45
2023/05/14 09:43:34;;;;;;;6.77;6.17;;;17.60;82.60;;;;;;4969003;28;20486;-45
2023/05/14 09:46:04;;;;;;;8.63;7.83;;;17.70;82.80;;;;;;4986190;28;20448;-46
2023/05/14 09:48:34;;;;;;;8.20;7.50;;;17.60;82.80;;;;;;4972438;28;20489;-45
2023/05/14 09:51:04;;;;;;;7.70;7.00;;;17.60;82.80;;;;;;4969105;28;20451;-46
2023/05/14 09:53:34;;;;;;;8.00;7.40;;;17.60;82.90;;;;;;4970247;28;20451;-45
2023/05/14 09:56:04;;;;;;;7.53;6.93;;;17.60;82.90;;;;;;4969870;28;20956;-46
2023/05/14 09:58:43;;;;;;;7.33;6.70;;;17.60;83.00;;;;;;4960391;28;20549;-48
2023/05/14 10:01:12;;;;;;;8.20;7.50;;;17.60;83.10;;;;;;4968459;28;20446;-47
2023/05/14 10:03:43;;;;;;;7.20;6.60;;;17.60;83.00;;;;;;4964218;28;20824;-46
2023/05/14 10:06:17;;;;;;;10.50;7.10;;;17.60;83.00;;;;;;4967245;28;20466;-48
2023/05/14 10:08:48;;;;;;;7.10;6.50;;;17.70;83.50;;;;;;4963479;28;21022;-49
2023/05/14 10:11:25;;;;;;;9.20;8.33;;;17.60;83.10;;;;;;4967649;28;20557;-45
2023/05/14 10:14:02;;;;;;;8.00;6.90;;;17.70;83.10;;;;;;4967795;28;20455;-47
2023/05/14 10:16:35;;;;;;;8.30;7.40;;;17.60;83.10;;;;;;4991925;28;20489;-50
2023/05/14 10:19:09;;;;;;;7.53;6.83;;;17.60;83.00;;;;;;4971179;28;20445;-46
2023/05/14 10:21:39;;;;;;;8.70;7.90;;;17.60;83.10;;;;;;4984080;28;20484;-45
2023/05/14 10:24:09;;;;;;;8.73;7.93;;;17.60;83.10;;;;;;4971387;28;20927;-46
2023/05/14 10:26:40;;;;;;;7.87;7.17;;;17.70;83.40;;;;;;4969635;28;20486;-44
2023/05/14 10:29:10;;;;;;;7.77;7.07;;;17.70;83.20;;;;;;4967751;28;20452;-44
2023/05/14 10:31:50;;;;;;;8.40;7.60;;;17.70;83.30;;;;;;4968996;28;20841;-46
2023/05/14 10:34:39;;;;;;;10.03;8.83;;;17.60;83.10;;;;;;4968269;28;20455;-44
2023/05/14 10:37:10;;;;;;;9.33;8.37;;;17.60;83.20;;;;;;4971157;28;20475;-45
2023/05/14 10:39:43;;;;;;;13.60;10.33;;;17.60;83.20;;;;;;4969582;28;20443;-45
2023/05/14 10:42:13;;;;;;;9.00;8.20;;;17.60;83.10;;;;;;4983491;28;20558;-47
2023/05/14 10:44:54;;;;;;;8.37;7.57;;;17.60;83.20;;;;;;4970634;28;20444;-47
2023/05/14 10:47:23;;;;;;;8.30;7.50;;;17.70;83.40;;;;;;4980342;28;21042;-47
2023/05/14 10:49:55;;;;;;;8.03;7.33;;;17.70;83.40;;;;;;4969551;28;20845;-45
2023/05/14 10:52:25;;;;;;;10.03;9.13;;;17.60;83.40;;;;;;4968360;28;20463;-43
2023/05/14 10:54:57;;;;;;;10.27;9.37;;;17.70;83.50;;;;;;4968061;28;20463;-46
2023/05/14 10:57:31;;;;;;;11.60;10.50;;;17.70;83.40;;;;;;4967856;28;21014;-46
2023/05/14 11:00:01;;;;;;;13.10;11.80;;;17.80;83.10;;;;;;4974095;28;20466;-44
2023/05/14 11:02:34;;;;;;;12.63;11.50;;;17.80;83.20;;;;;;4968872;28;20479;-46
2023/05/14 11:05:09;;;;;;;12.17;11.07;;;17.80;83.20;;;;;;4970210;28;20443;-47
2023/05/14 11:07:42;;;;;;;11.50;10.50;;;17.80;83.30;;;;;;4965161;28;20479;-45
2023/05/14 11:10:13;;;;;;;11.57;10.57;;;17.80;83.40;;;;;;4968175;28;20435;-46
2023/05/14 11:12:42;;;;;;;12.47;11.27;;;17.70;83.40;;;;;;4961340;28;20858;-46
2023/05/14 11:15:13;;;;;;;12.60;11.50;;;17.70;83.40;;;;;;4969502;28;20502;-47
2023/05/14 11:17:42;;;;;;;11.60;10.20;;;17.70;83.50;;;;;;4961571;28;21016;-46
2023/05/14 11:20:15;;;;;;;12.17;11.07;;;17.70;83.60;;;;;;4969121;28;20559;-47
2023/05/14 11:22:45;;;;;;;11.70;10.70;;;17.70;83.60;;;;;;4976433;28;20475;-45
2023/05/14 11:25:17;;;;;;;12.77;10.67;;;17.70;83.60;;;;;;4971561;28;20809;-46
2023/05/14 11:27:59;;;;;;;9.60;8.80;;;17.70;83.70;;;;;;4969803;28;20987;-45
2023/05/14 11:30:28;;;;;;;11.20;10.00;;;17.70;83.60;;;;;;4969378;28;20534;-46
2023/05/14 11:33:00;;;;;;;11.13;10.17;;;17.70;83.70;;;;;;4963520;28;20494;-45
2023/05/14 11:35:31;;;;;;;13.83;12.47;;;17.80;84.90;;;;;;4970810;28;20437;-47
2023/05/14 11:38:01;;;;;;;16.07;14.47;;;17.80;83.40;;;;;;4968031;28;20479;-45
2023/05/14 11:40:30;;;;;;;14.20;12.70;;;17.80;83.30;;;;;;4970962;28;20434;-46
2023/05/14 11:42:59;;;;;;;13.03;11.80;;;17.80;83.40;;;;;;4967960;28;20571;-45
2023/05/14 11:45:29;;;;;;;12.53;11.43;;;17.80;83.50;;;;;;4983050;28;20810;-46
2023/05/14 11:47:57;;;;;;;13.73;12.43;;;17.80;83.60;;;;;;4962844;28;20506;-48
2023/05/14 11:50:26;;;;;;;13.77;12.47;;;17.80;84.90;;;;;;4963605;28;21149;-49
2023/05/14 11:53:05;;;;;;;11.30;10.30;;;17.80;83.70;;;;;;4961307;28;20463;-45
2023/05/14 11:55:35;;;;;;;12.23;11.13;;;17.80;83.70;;;;;;4978356;28;20539;-44
2023/05/14 11:58:05;;;;;;;11.23;10.13;;;17.80;83.80;;;;;;4985273;28;20486;-44
2023/05/14 12:00:37;;;;;;;11.10;10.10;;;17.80;83.90;;;;;;4971209;28;20439;-43
2023/05/14 12:03:08;;;;;;;12.77;11.67;;;17.80;83.90;;;;;;4970657;28;21030;-44
2023/05/14 12:05:38;;;;;;;11.33;10.40;;;17.80;83.90;;;;;;4970593;28;20497;-44
2023/05/14 12:08:21;;;;;;;12.00;10.90;;;17.80;83.90;;;;;;4967752;28;20495;-44
2023/05/14 12:10:50;;;;;;;13.30;10.10;;;17.80;83.90;;;;;;4970076;28;21008;-43
2023/05/14 12:13:20;;;;;;;11.07;10.07;;;17.80;84.00;;;;;;4970639;28;20467;-45
2023/05/14 12:15:56;;;;;;;11.10;10.20;;;17.80;84.00;;;;;;4963632;28;20448;-45
2023/05/14 12:18:27;;;;;;;12.17;11.07;;;17.80;83.90;;;;;;4969389;28;20459;-46
2023/05/14 12:21:06;;;;;;;10.10;9.20;;;17.80;83.80;;;;;;4975311;28;20811;-43
2023/05/14 12:23:39;;;;;;;11.30;10.20;;;17.90;84.00;;;;;;4973087;28;20509;-45
2023/05/14 12:26:10;;;;;;;11.33;10.23;;;17.90;84.00;;;;;;4974240;28;20447;-44
2023/05/14 12:29:00;;;;;;;12.10;11.10;;;17.90;84.00;;;;;;4974907;28;20862;-44
2023/05/14 12:31:30;;;;;;;10.13;9.33;;;17.90;83.70;;;;;;4986809;28;20571;-45
2023/05/14 12:33:59;;;;;;;9.37;8.57;;;17.90;83.80;;;;;;4974177;28;20451;-45
2023/05/14 12:36:28;;;;;;;10.37;9.37;;;17.90;83.80;;;;;;4987419;28;20550;-45
2023/05/14 12:39:02;;;;;;;9.20;8.40;;;17.90;83.70;;;;;;4970353;28;20447;-45
2023/05/14 12:41:31;;;;;;;10.90;10.00;;;17.90;83.50;;;;;;4970604;28;20587;-45
2023/05/14 12:44:02;;;;;;;9.17;8.37;;;17.90;83.30;;;;;;4974396;28;20478;-44
2023/05/14 12:46:33;;;;;;;9.57;8.77;;;17.90;83.30;;;;;;4972819;28;21000;-45
2023/05/14 12:49:02;;;;;;;10.00;9.13;;;17.90;83.20;;;;;;4972145;28;20470;-44
2023/05/14 12:51:31;;;;;;;10.10;9.20;;;17.90;83.30;;;;;;4969627;28;20479;-44
2023/05/14 12:54:05;;;;;;;10.63;9.63;;;17.90;83.30;;;;;;4954290;28;20502;-43
2023/05/14 12:56:36;;;;;;;9.40;8.60;;;17.90;83.30;;;;;;4969209;28;20464;-43